Terminal Aerodrome Forecast
Issued by NWS

Home | Current Version | Previous Version | Text Only | Print | Product List | Glossary On
Versions: 1 2 3 4 5 6 7 8 9 10 11 12 13 14 15 16 17 18 19
506
FTUS44 KTSA 192337
TAFFYV
TAF
KFYV 192337Z 2000/2024 18014G23KT P6SM VCSH SCT015 OVC040
     FM200600 18018G28KT P6SM VCTS OVC015CB
      TEMPO 2010/2014 3SM TSRA BR OVC010CB
     FM201700 19018G28KT 4SM -TSRA BR OVC015CB
     FM202100 35013G21KT 4SM -RA BR OVC010=

USA.gov is the U.S. government's official web portal to all federal, state and local government web resources and services.